Time;durP1;ratioP1;P1;durP2;ratioP2;P2;SDS_P1;SDS_P2;PMS_P1;PMS_P2;Temp;Humidity;BMP_temperature;BMP_pressure;BME280_temperature;BME280_humidity;BME280_pressure;Samples;Min_cycle;Max_cycle;Signal;HPM_P1;HPM_P2
2021/11/25 00:00:18;;;;;;;16.10;10.13;;;6.00;99.90;;;;;;4977019;28;20386;-77
2021/11/25 00:02:44;;;;;;;17.08;10.90;;;6.00;99.90;;;;;;4961085;28;20045;-81
2021/11/25 00:05:10;;;;;;;16.75;10.57;;;6.00;99.90;;;;;;4994149;28;20038;-77
2021/11/25 00:07:36;;;;;;;15.07;9.88;;;6.00;99.90;;;;;;4994553;28;20037;-78
2021/11/25 00:10:03;;;;;;;22.67;12.45;;;6.00;99.90;;;;;;4994543;28;20030;-77
2021/11/25 00:12:28;;;;;;;18.45;11.00;;;6.00;99.90;;;;;;4994633;28;20027;-78
2021/11/25 00:14:54;;;;;;;19.35;10.65;;;6.00;99.90;;;;;;4994552;28;20038;-76
2021/11/25 00:17:20;;;;;;;18.23;11.00;;;6.00;99.90;;;;;;4998240;28;20037;-77
2021/11/25 00:19:46;;;;;;;16.17;10.15;;;6.00;99.90;;;;;;4993882;28;20026;-77
2021/11/25 00:22:11;;;;;;;16.00;10.30;;;6.00;99.90;;;;;;4995442;28;20161;-80
2021/11/25 00:24:37;;;;;;;20.75;10.68;;;6.00;99.90;;;;;;4994347;28;20049;-79
2021/11/25 00:27:03;;;;;;;18.27;10.48;;;6.00;99.90;;;;;;4993929;28;20045;-79
2021/11/25 00:29:29;;;;;;;15.15;10.10;;;6.00;99.90;;;;;;4994460;28;20030;-80
2021/11/25 00:31:54;;;;;;;15.90;8.57;;;6.00;99.90;;;;;;4994234;28;20031;-80
2021/11/25 00:34:20;;;;;;;15.00;9.80;;;6.10;99.90;;;;;;4994621;28;20030;-78
2021/11/25 00:36:46;;;;;;;15.10;9.63;;;6.10;99.90;;;;;;4993695;28;20042;-78
2021/11/25 00:39:11;;;;;;;18.15;9.07;;;6.10;99.90;;;;;;4994120;28;20030;-80
2021/11/25 00:41:37;;;;;;;19.17;8.88;;;6.10;99.90;;;;;;4994202;28;20026;-80
2021/11/25 00:44:03;;;;;;;14.15;9.52;;;6.20;99.90;;;;;;4994303;28;20546;-78
2021/11/25 00:46:29;;;;;;;15.05;9.27;;;6.20;99.90;;;;;;4993693;28;20117;-76
2021/11/25 00:48:55;;;;;;;16.70;9.50;;;6.10;99.90;;;;;;4994084;28;20042;-78
2021/11/25 00:51:20;;;;;;;19.98;9.75;;;6.10;99.90;;;;;;4993752;28;20118;-76
2021/11/25 00:53:46;;;;;;;14.95;8.93;;;6.10;99.90;;;;;;4993711;28;20038;-75
2021/11/25 00:56:12;;;;;;;14.73;8.98;;;6.10;99.90;;;;;;4994574;28;20062;-80
2021/11/25 00:58:38;;;;;;;16.35;10.13;;;6.10;99.90;;;;;;4993631;28;20064;-78
2021/11/25 01:01:04;;;;;;;16.08;10.13;;;6.10;99.90;;;;;;4993441;28;20030;-76
2021/11/25 01:03:29;;;;;;;18.10;10.15;;;6.10;99.90;;;;;;5005374;28;20045;-77
2021/11/25 01:05:55;;;;;;;16.85;10.02;;;6.10;99.90;;;;;;5013521;28;20061;-81
2021/11/25 01:08:21;;;;;;;13.82;9.35;;;6.00;99.90;;;;;;5013270;28;20457;-77
2021/11/25 01:10:48;;;;;;;31.30;10.10;;;6.10;99.90;;;;;;5013343;28;20161;-79
2021/11/25 01:13:14;;;;;;;15.38;9.32;;;6.00;99.90;;;;;;5011946;28;20493;-78
2021/11/25 01:15:40;;;;;;;15.90;9.15;;;6.10;99.90;;;;;;5012072;28;20046;-79
2021/11/25 01:18:09;;;;;;;12.40;8.18;;;6.10;99.90;;;;;;5013054;28;20049;-75
2021/11/25 01:20:36;;;;;;;14.82;9.32;;;6.10;99.90;;;;;;4995524;28;20038;-80
2021/11/25 01:23:05;;;;;;;15.27;8.80;;;6.10;99.90;;;;;;5013231;28;20042;-78
2021/11/25 01:25:31;;;;;;;14.30;8.13;;;6.10;99.90;;;;;;5012824;28;20041;-77
2021/11/25 01:27:57;;;;;;;13.57;8.77;;;6.10;99.90;;;;;;5013124;28;20088;-78
2021/11/25 01:30:23;;;;;;;13.40;8.68;;;6.10;99.90;;;;;;5012517;28;20038;-78
2021/11/25 01:32:49;;;;;;;17.70;8.90;;;6.10;99.90;;;;;;5012541;28;20030;-80
2021/11/25 01:35:15;;;;;;;16.73;8.65;;;6.10;99.90;;;;;;5012432;28;20037;-77
2021/11/25 01:37:41;;;;;;;12.75;8.75;;;6.10;99.90;;;;;;5012337;28;20048;-79
2021/11/25 01:40:10;;;;;;;14.32;9.35;;;6.10;99.90;;;;;;5012875;28;20117;-77
2021/11/25 01:42:36;;;;;;;16.33;9.52;;;6.10;99.90;;;;;;5008062;28;20030;-80
2021/11/25 01:45:03;;;;;;;13.40;9.40;;;6.10;99.90;;;;;;4992689;28;20497;-78
2021/11/25 01:47:29;;;;;;;18.48;9.95;;;6.10;99.90;;;;;;4992512;28;20058;-78
2021/11/25 01:49:55;;;;;;;14.63;9.20;;;6.10;99.90;;;;;;4975679;28;20066;-80
2021/11/25 01:52:21;;;;;;;16.10;9.45;;;6.10;99.90;;;;;;4975638;28;20061;-79
2021/11/25 01:54:46;;;;;;;16.73;10.32;;;6.00;99.90;;;;;;4993026;28;20450;-78
2021/11/25 01:57:12;;;;;;;16.08;10.07;;;6.00;99.90;;;;;;4975711;28;20467;-77
2021/11/25 01:59:38;;;;;;;15.02;9.85;;;6.00;99.90;;;;;;4992875;28;20122;-79
2021/11/25 02:02:06;;;;;;;21.70;10.32;;;6.00;99.90;;;;;;4993115;28;20050;-80
2021/11/25 02:04:32;;;;;;;15.50;9.25;;;6.00;99.90;;;;;;4992715;28;20057;-78
2021/11/25 02:06:58;;;;;;;17.60;10.00;;;6.00;99.90;;;;;;4992531;28;20471;-78
2021/11/25 02:09:24;;;;;;;19.40;10.55;;;6.00;99.90;;;;;;4992770;28;20101;-79
2021/11/25 02:11:50;;;;;;;14.25;9.60;;;5.90;99.90;;;;;;4992607;28;20038;-78
2021/11/25 02:14:16;;;;;;;17.33;9.77;;;5.90;99.90;;;;;;4993024;28;20467;-77
2021/11/25 02:16:42;;;;;;;15.40;9.77;;;5.90;99.90;;;;;;5012508;28;20038;-80
2021/11/25 02:19:09;;;;;;;16.83;9.73;;;5.90;99.90;;;;;;5012327;28;20041;-81
2021/11/25 02:21:35;;;;;;;15.82;9.77;;;5.90;99.90;;;;;;5012137;28;20062;-78
2021/11/25 02:24:02;;;;;;;16.40;8.73;;;5.90;99.90;;;;;;5012205;28;20026;-78
2021/11/25 02:26:27;;;;;;;18.73;8.80;;;6.00;99.90;;;;;;5012414;28;20450;-79
2021/11/25 02:28:53;;;;;;;16.63;10.05;;;6.00;99.90;;;;;;5012607;28;20030;-80
2021/11/25 02:31:19;;;;;;;17.45;9.43;;;6.00;99.90;;;;;;5012203;28;20150;-80
2021/11/25 02:33:45;;;;;;;17.33;9.48;;;6.00;99.90;;;;;;5012147;28;20037;-78
2021/11/25 02:36:11;;;;;;;13.82;9.45;;;6.00;99.90;;;;;;5011683;28;20050;-79
2021/11/25 02:38:38;;;;;;;14.90;9.38;;;5.90;99.90;;;;;;5012332;28;20142;-80
2021/11/25 02:41:05;;;;;;;16.25;9.57;;;5.90;99.90;;;;;;5012079;28;20104;-79
2021/11/25 02:43:33;;;;;;;18.55;9.80;;;5.90;99.90;;;;;;5014483;28;20034;-79
2021/11/25 02:46:13;;;;;;;18.00;8.70;;;5.90;99.90;;;;;;5015184;28;20433;-79
2021/11/25 02:48:42;;;;;;;15.23;9.48;;;5.90;99.90;;;;;;5015410;28;20030;-78
2021/11/25 02:51:10;;;;;;;19.00;10.65;;;5.90;99.90;;;;;;4997505;28;20041;-77
2021/11/25 02:53:36;;;;;;;16.10;9.68;;;5.90;99.90;;;;;;5015248;28;20034;-80
2021/11/25 02:56:28;;;;;;;16.45;9.43;;;5.90;99.90;;;;;;5013988;28;20109;-77
2021/11/25 02:58:55;;;;;;;;;;;5.90;99.90;;;;;;4996747;28;20037;-80
2021/11/25 03:01:33;;;;;;;17.35;9.20;;;6.00;99.90;;;;;;5015327;28;19905;-80
2021/11/25 03:04:01;;;;;;;15.40;9.30;;;6.00;99.90;;;;;;4997583;28;20042;-78
2021/11/25 03:06:27;;;;;;;16.60;9.55;;;5.90;99.90;;;;;;5014828;28;20517;-76
2021/11/25 03:08:53;;;;;;;11.57;7.80;;;5.90;99.90;;;;;;5015329;28;20030;-76
2021/11/25 03:11:21;;;;;;;13.88;8.68;;;5.90;99.90;;;;;;5005850;28;20046;-78
2021/11/25 03:13:50;;;;;;;14.23;9.02;;;6.00;99.90;;;;;;4995468;28;20037;-78
2021/11/25 03:16:18;;;;;;;13.75;9.15;;;6.00;99.90;;;;;;4995556;28;20026;-76
2021/11/25 03:18:44;;;;;;;15.88;9.05;;;6.10;99.90;;;;;;4995824;28;20085;-78
2021/11/25 03:21:10;;;;;;;14.75;9.27;;;6.20;99.90;;;;;;4995005;28;20495;-77
2021/11/25 03:23:38;;;;;;;13.70;8.10;;;6.20;99.90;;;;;;4985284;28;20036;-77
2021/11/25 03:26:06;;;;;;;15.63;9.15;;;6.30;99.90;;;;;;5009752;28;20050;-77
2021/11/25 03:28:32;;;;;;;14.13;8.60;;;6.40;99.90;;;;;;5007477;28;20149;-75
2021/11/25 03:30:58;;;;;;;14.15;8.88;;;6.40;99.90;;;;;;4995336;28;20037;-77
2021/11/25 03:33:29;;;;;;;12.20;8.45;;;6.40;99.90;;;;;;4995370;28;20058;-75
2021/11/25 03:35:56;;;;;;;14.05;8.75;;;6.40;99.90;;;;;;4995040;28;20074;-77
2021/11/25 03:38:22;;;;;;;17.50;9.07;;;6.50;99.90;;;;;;4995254;28;20099;-77
2021/11/25 03:40:49;;;;;;;13.10;8.55;;;6.50;99.90;;;;;;4995184;28;20038;-78
2021/11/25 03:43:15;;;;;;;13.88;8.82;;;6.60;99.90;;;;;;4995456;28;20030;-75
2021/11/25 03:45:41;;;;;;;16.20;9.30;;;6.70;99.90;;;;;;4974094;28;20058;-78
2021/11/25 03:48:07;;;;;;;17.27;8.82;;;6.60;99.90;;;;;;4972948;28;20034;-78
2021/11/25 03:50:34;;;;;;;16.83;8.20;;;6.70;99.90;;;;;;4994808;28;20113;-75
2021/11/25 03:53:00;;;;;;;14.73;8.60;;;6.70;99.90;;;;;;4995116;28;20110;-77
2021/11/25 03:55:26;;;;;;;13.95;8.18;;;6.80;99.90;;;;;;4995016;28;20121;-79
2021/11/25 03:57:52;;;;;;;14.40;8.93;;;6.80;99.90;;;;;;4994678;28;20034;-75
2021/11/25 04:00:20;;;;;;;18.95;8.50;;;6.90;99.90;;;;;;4994457;28;20047;-78
2021/11/25 04:02:47;;;;;;;11.80;8.65;;;6.90;99.90;;;;;;4994743;28;20027;-78
2021/11/25 04:05:13;;;;;;;17.65;9.75;;;6.90;99.90;;;;;;4994911;28;20415;-75
2021/11/25 04:07:39;;;;;;;11.50;8.38;;;7.00;99.90;;;;;;4995011;28;20031;-78
2021/11/25 04:10:07;;;;;;;19.50;8.15;;;7.00;99.90;;;;;;5000678;28;20026;-78
2021/11/25 04:12:33;;;;;;;12.45;8.05;;;7.00;99.90;;;;;;4994195;28;20042;-78
2021/11/25 04:14:59;;;;;;;12.55;7.35;;;7.00;99.90;;;;;;4994389;28;20030;-76
2021/11/25 04:17:25;;;;;;;13.07;7.85;;;7.00;99.90;;;;;;4993925;28;20034;-78
2021/11/25 04:19:51;;;;;;;14.63;8.15;;;7.00;99.90;;;;;;4994414;28;20026;-78
2021/11/25 04:22:21;;;;;;;12.43;7.25;;;7.10;99.90;;;;;;4994121;28;20045;-75
2021/11/25 04:24:51;;;;;;;12.55;8.27;;;7.20;99.90;;;;;;4992877;28;20128;-76
2021/11/25 04:27:17;;;;;;;14.23;9.02;;;7.20;99.90;;;;;;4976854;28;20031;-76
2021/11/25 04:29:49;;;;;;;13.20;9.27;;;7.20;99.90;;;;;;4994571;28;20030;-78
2021/11/25 04:37:45;;;;;;;16.10;8.77;;;7.30;99.90;;;;;;4994144;28;20185;-78
2021/11/25 04:40:11;;;;;;;13.30;8.05;;;7.30;99.90;;;;;;5000446;28;20530;-78
2021/11/25 04:42:37;;;;;;;14.82;8.73;;;7.30;99.90;;;;;;5012661;28;20070;-75
2021/11/25 04:45:04;;;;;;;15.57;8.52;;;7.30;99.90;;;;;;5005355;28;20066;-77
2021/11/25 04:47:30;;;;;;;12.25;8.30;;;7.40;99.90;;;;;;4993942;28;20068;-78
2021/11/25 04:49:56;;;;;;;13.85;8.65;;;7.40;99.90;;;;;;4993983;28;20038;-80
2021/11/25 04:52:21;;;;;;;13.43;8.20;;;7.40;99.90;;;;;;4993595;28;20046;-78
2021/11/25 04:54:47;;;;;;;13.40;8.82;;;7.40;99.90;;;;;;4976162;28;20046;-77
2021/11/25 04:57:13;;;;;;;19.77;9.50;;;7.50;99.90;;;;;;4992849;28;20038;-78
2021/11/25 04:59:39;;;;;;;15.68;7.97;;;7.50;99.90;;;;;;4993633;28;20034;-80
2021/11/25 05:02:05;;;;;;;20.67;9.32;;;7.50;99.90;;;;;;4993469;28;20029;-76
2021/11/25 05:04:31;;;;;;;15.93;9.93;;;7.50;99.90;;;;;;4993160;28;20023;-76
2021/11/25 05:06:57;;;;;;;18.42;9.35;;;7.60;99.90;;;;;;4993255;28;20035;-79
2021/11/25 05:09:22;;;;;;;14.05;9.57;;;7.60;99.90;;;;;;4976159;28;20498;-76
2021/11/25 05:11:48;;;;;;;19.98;9.45;;;7.60;99.90;;;;;;4994861;28;20038;-76
2021/11/25 05:14:14;;;;;;;19.42;9.45;;;7.60;99.90;;;;;;4999643;28;20483;-77
2021/11/25 05:16:39;;;;;;;14.00;9.05;;;7.60;99.90;;;;;;4993363;28;20084;-77
2021/11/25 05:19:05;;;;;;;16.60;9.35;;;7.60;99.90;;;;;;4993170;28;20030;-75
2021/11/25 05:21:31;;;;;;;15.25;9.25;;;7.60;99.90;;;;;;4993404;28;20030;-76
2021/11/25 05:23:57;;;;;;;15.85;8.80;;;7.60;99.90;;;;;;4993389;28;20033;-77
2021/11/25 05:26:22;;;;;;;13.45;8.68;;;7.60;99.90;;;;;;4993118;28;20058;-79
2021/11/25 05:28:48;;;;;;;11.70;8.20;;;7.60;99.90;;;;;;4993475;28;20538;-75
2021/11/25 05:31:14;;;;;;;14.95;8.73;;;7.60;99.90;;;;;;4993445;28;20038;-77
2021/11/25 05:33:40;;;;;;;16.45;10.27;;;7.60;99.90;;;;;;4993095;28;20041;-76
2021/11/25 05:36:05;;;;;;;14.82;7.80;;;7.70;99.90;;;;;;4993098;28;20050;-79
2021/11/25 05:38:31;;;;;;;16.40;8.73;;;7.70;99.90;;;;;;4992971;28;20093;-76
2021/11/25 05:40:57;;;;;;;14.80;8.20;;;7.70;99.90;;;;;;4993072;28;20046;-79
2021/11/25 05:43:23;;;;;;;21.42;7.78;;;7.80;99.90;;;;;;4993138;28;20463;-75
2021/11/25 05:45:49;;;;;;;14.02;8.65;;;7.80;99.90;;;;;;4992848;28;20050;-76
2021/11/25 05:48:14;;;;;;;13.10;8.15;;;7.80;99.90;;;;;;4992542;28;20030;-76
2021/11/25 05:50:40;;;;;;;17.60;9.27;;;7.80;99.90;;;;;;4993634;28;20541;-76
2021/11/25 05:53:06;;;;;;;14.88;9.45;;;7.90;99.90;;;;;;4994000;28;20035;-76
2021/11/25 05:55:32;;;;;;;12.45;8.93;;;7.90;99.90;;;;;;4975851;28;20117;-75
2021/11/25 05:57:58;;;;;;;16.73;9.13;;;7.90;99.90;;;;;;4993185;28;20133;-76
2021/11/25 06:00:25;;;;;;;12.80;8.98;;;7.90;99.90;;;;;;4992918;28;20445;-76
2021/11/25 06:02:51;;;;;;;16.42;9.25;;;7.90;99.90;;;;;;4993196;28;20487;-79
2021/11/25 06:05:23;;;;;;;12.82;8.27;;;7.90;99.90;;;;;;4993008;28;20042;-75
2021/11/25 06:07:50;;;;;;;13.43;8.50;;;7.90;99.90;;;;;;4992601;28;20081;-74
2021/11/25 06:10:18;;;;;;;13.35;8.25;;;7.90;99.90;;;;;;4997458;28;20038;-76
2021/11/25 06:12:44;;;;;;;12.95;8.52;;;7.90;99.90;;;;;;4992312;28;20062;-77
2021/11/25 06:15:11;;;;;;;14.23;8.38;;;7.90;99.90;;;;;;4992783;28;20113;-78
2021/11/25 06:17:36;;;;;;;16.38;8.45;;;7.90;99.90;;;;;;4994089;28;20064;-77
2021/11/25 06:20:10;;;;;;;12.95;8.45;;;8.00;99.90;;;;;;4995859;28;20065;-75
2021/11/25 06:22:36;;;;;;;18.05;7.85;;;8.00;99.90;;;;;;4996305;28;20070;-79
2021/11/25 06:25:02;;;;;;;18.50;8.70;;;8.00;99.90;;;;;;4978689;28;20504;-76
2021/11/25 06:27:28;;;;;;;14.40;9.07;;;8.00;99.90;;;;;;4978801;28;20190;-76
2021/11/25 06:29:54;;;;;;;16.92;9.25;;;8.10;99.90;;;;;;4996964;28;20491;-76
2021/11/25 06:32:19;;;;;;;12.23;8.50;;;8.10;99.90;;;;;;4983689;28;20043;-76
2021/11/25 06:34:45;;;;;;;18.55;9.20;;;8.10;99.90;;;;;;4976888;28;20035;-78
2021/11/25 06:37:11;;;;;;;20.88;8.95;;;8.20;99.90;;;;;;4993328;28;20046;-79
2021/11/25 06:39:36;;;;;;;18.75;9.10;;;8.20;99.90;;;;;;4997818;28;20030;-75
2021/11/25 06:42:02;;;;;;;12.50;8.45;;;8.20;99.90;;;;;;4990867;28;20038;-77
2021/11/25 06:44:28;;;;;;;13.52;7.85;;;8.20;99.90;;;;;;4993521;28;20097;-75
2021/11/25 06:46:54;;;;;;;17.63;8.88;;;8.30;99.90;;;;;;4978711;28;20038;-80
2021/11/25 06:49:19;;;;;;;15.20;8.23;;;8.30;99.90;;;;;;4996290;28;20073;-77
2021/11/25 06:51:45;;;;;;;15.35;9.00;;;8.30;99.90;;;;;;4996354;28;20058;-77
2021/11/25 06:54:11;;;;;;;16.73;8.90;;;8.30;99.90;;;;;;4996319;28;20502;-74
2021/11/25 06:56:37;;;;;;;16.02;9.57;;;8.40;99.90;;;;;;4996342;28;20038;-76
2021/11/25 06:59:05;;;;;;;19.90;8.93;;;8.40;99.90;;;;;;4995851;28;20038;-75
2021/11/25 07:01:30;;;;;;;15.25;9.45;;;8.40;99.90;;;;;;4996481;28;20030;-76
2021/11/25 07:03:56;;;;;;;15.75;9.25;;;8.50;99.90;;;;;;4995949;28;20030;-77
2021/11/25 07:06:22;;;;;;;13.95;8.23;;;8.50;99.90;;;;;;4995398;28;20050;-75
2021/11/25 07:08:47;;;;;;;14.52;9.32;;;8.50;99.90;;;;;;4995736;28;20495;-79
2021/11/25 07:11:13;;;;;;;16.00;9.43;;;8.60;99.90;;;;;;5011170;28;20034;-77
2021/11/25 07:13:39;;;;;;;19.73;8.85;;;8.60;99.90;;;;;;4981231;28;20038;-78
2021/11/25 07:16:05;;;;;;;17.17;8.82;;;8.60;99.90;;;;;;4995067;28;20038;-79
2021/11/25 07:18:30;;;;;;;17.85;9.77;;;8.70;99.90;;;;;;4995886;28;20034;-76
2021/11/25 07:20:58;;;;;;;28.50;9.52;;;8.70;99.90;;;;;;4994550;28;20092;-76
2021/11/25 07:23:24;;;;;;;16.92;9.27;;;8.70;99.90;;;;;;4996063;28;20073;-75
2021/11/25 07:25:50;;;;;;;29.42;11.07;;;8.70;99.90;;;;;;4996086;28;20070;-77
2021/11/25 07:28:15;;;;;;;23.13;9.85;;;8.70;99.90;;;;;;4995060;28;20105;-76
2021/11/25 07:30:41;;;;;;;16.75;9.55;;;8.70;99.90;;;;;;4994322;28;20077;-77
2021/11/25 07:33:07;;;;;;;19.33;8.93;;;8.70;99.90;;;;;;4995468;28;20034;-80
2021/11/25 07:35:33;;;;;;;26.08;9.02;;;8.80;99.90;;;;;;4977793;28;20070;-75
2021/11/25 07:38:00;;;;;;;23.08;9.73;;;8.80;99.90;;;;;;4995342;28;20034;-76
2021/11/25 07:40:25;;;;;;;19.10;9.65;;;8.80;99.90;;;;;;5004640;28;20390;-77
2021/11/25 07:42:52;;;;;;;18.70;9.85;;;8.80;99.90;;;;;;5014528;28;20038;-76
2021/11/25 07:45:19;;;;;;;21.15;9.18;;;8.90;99.90;;;;;;4996520;28;20157;-75
2021/11/25 07:47:45;;;;;;;19.63;9.48;;;8.90;99.90;;;;;;4995447;28;20027;-75
2021/11/25 07:50:17;;;;;;;30.42;10.07;;;8.90;99.90;;;;;;4995802;28;20447;-76
2021/11/25 07:52:43;;;;;;;26.25;9.38;;;9.00;99.90;;;;;;4995368;28;20117;-77
2021/11/25 07:55:11;;;;;;;27.67;10.15;;;9.00;99.90;;;;;;4995361;28;20065;-74
2021/11/25 07:57:39;;;;;;;17.55;9.57;;;9.00;99.90;;;;;;4995118;28;20038;-75
2021/11/25 08:00:06;;;;;;;18.95;9.25;;;9.10;99.90;;;;;;4995342;28;20030;-79
2021/11/25 08:02:33;;;;;;;17.92;9.57;;;9.10;99.90;;;;;;4977875;28;20165;-77
2021/11/25 08:04:59;;;;;;;26.10;9.35;;;9.20;99.90;;;;;;4995040;28;20038;-77
2021/11/25 08:07:25;;;;;;;16.13;9.48;;;9.20;99.90;;;;;;4995175;28;20042;-77
2021/11/25 08:09:51;;;;;;;17.63;9.60;;;9.20;99.90;;;;;;4999260;28;20033;-80
2021/11/25 08:12:16;;;;;;;22.80;11.05;;;9.30;99.90;;;;;;5014716;28;20021;-80
2021/11/25 08:14:42;;;;;;;21.25;9.15;;;9.30;99.90;;;;;;5014578;28;20125;-75
2021/11/25 08:17:10;;;;;;;22.63;10.00;;;9.30;99.90;;;;;;5014351;28;20093;-76
2021/11/25 08:19:36;;;;;;;19.38;9.40;;;9.40;99.90;;;;;;4997068;28;20066;-80
2021/11/25 08:22:02;;;;;;;17.38;10.23;;;9.40;99.90;;;;;;5014227;28;20096;-78
2021/11/25 08:24:28;;;;;;;15.25;9.00;;;9.50;99.90;;;;;;5014424;28;20038;-78
2021/11/25 08:26:54;;;;;;;19.98;10.23;;;9.50;99.90;;;;;;5014020;28;20501;-77
2021/11/25 08:29:21;;;;;;;19.77;9.82;;;9.60;99.90;;;;;;5014007;28;20034;-76
2021/11/25 08:31:46;;;;;;;21.00;9.95;;;9.60;99.90;;;;;;5014015;28;20033;-79
2021/11/25 08:34:12;;;;;;;35.45;11.68;;;9.70;99.90;;;;;;5014079;28;20030;-76
2021/11/25 08:36:38;;;;;;;28.40;11.75;;;9.70;99.90;;;;;;4996172;28;20387;-77
2021/11/25 08:39:04;;;;;;;19.38;10.93;;;9.70;99.90;;;;;;5014101;28;20038;-79
2021/11/25 08:41:30;;;;;;;19.60;9.88;;;9.70;99.90;;;;;;5012204;28;20117;-77
2021/11/25 08:43:55;;;;;;;24.63;11.05;;;9.70;99.90;;;;;;5014178;28;20546;-77
2021/11/25 08:46:21;;;;;;;21.98;10.30;;;9.80;99.90;;;;;;4996398;28;20080;-77
2021/11/25 08:48:47;;;;;;;18.20;10.95;;;9.80;99.90;;;;;;5013706;28;20080;-78
2021/11/25 08:51:14;;;;;;;18.77;9.65;;;9.80;99.90;;;;;;5013706;28;20065;-79
2021/11/25 08:53:40;;;;;;;21.70;10.73;;;9.80;99.90;;;;;;5014016;28;20387;-82
2021/11/25 08:56:09;;;;;;;18.27;10.25;;;9.80;99.90;;;;;;5011923;28;20034;-80
2021/11/25 08:58:35;;;;;;;29.83;10.20;;;9.80;99.90;;;;;;5013707;28;20498;-79
2021/11/25 09:01:01;;;;;;;18.40;10.82;;;9.80;99.90;;;;;;5012970;28;20479;-80
2021/11/25 09:03:28;;;;;;;21.58;11.15;;;9.90;99.90;;;;;;4985137;28;20033;-80
2021/11/25 09:05:54;;;;;;;26.65;10.25;;;9.90;99.90;;;;;;4993335;28;20129;-77
2021/11/25 09:08:19;;;;;;;20.00;10.23;;;10.00;99.90;;;;;;4993653;28;20078;-81
2021/11/25 09:10:45;;;;;;;22.42;10.52;;;10.00;99.90;;;;;;4976503;28;20041;-75
2021/11/25 09:13:11;;;;;;;32.33;11.38;;;10.10;99.90;;;;;;4993927;28;20026;-82
2021/11/25 09:15:39;;;;;;;25.95;11.90;;;10.10;99.90;;;;;;4993980;28;20058;-77
2021/11/25 09:18:07;;;;;;;26.65;11.20;;;10.00;99.90;;;;;;4993875;28;20513;-76
2021/11/25 09:20:38;;;;;;;23.42;11.35;;;10.10;99.90;;;;;;4976272;28;20096;-77
2021/11/25 09:23:13;;;;;;;16.88;11.10;;;10.10;99.90;;;;;;4993417;28;20089;-76
2021/11/25 09:25:42;;;;;;;20.58;10.65;;;10.10;99.90;;;;;;4994505;28;20066;-77
2021/11/25 09:28:09;;;;;;;24.35;10.80;;;10.20;99.90;;;;;;5000850;28;20122;-76
2021/11/25 09:30:36;;;;;;;25.10;11.40;;;10.20;99.90;;;;;;4974301;28;20039;-76
2021/11/25 09:33:02;;;;;;;30.02;11.73;;;10.30;99.90;;;;;;4989345;28;20483;-80
2021/11/25 09:35:28;;;;;;;44.95;9.98;;;10.30;99.90;;;;;;5004066;28;20045;-75
2021/11/25 09:37:53;;;;;;;19.88;9.80;;;10.30;99.90;;;;;;4997899;28;20039;-78
2021/11/25 09:40:23;;;;;;;35.10;10.75;;;10.40;99.90;;;;;;4992662;28;20110;-81
2021/11/25 09:42:56;;;;;;;27.13;11.57;;;10.40;99.90;;;;;;4972588;28;20033;-77
2021/11/25 09:45:23;;;;;;;35.00;11.05;;;10.50;99.90;;;;;;4998232;28;20120;-77
2021/11/25 09:47:51;;;;;;;27.55;10.50;;;10.50;99.90;;;;;;4999872;28;20037;-76
2021/11/25 09:50:22;;;;;;;26.45;10.43;;;10.60;99.90;;;;;;4996514;28;20045;-79
2021/11/25 09:52:51;;;;;;;29.08;9.63;;;10.70;99.90;;;;;;4997941;28;20088;-83
2021/11/25 09:55:16;;;;;;;25.92;10.63;;;10.80;99.90;;;;;;4982153;28;20022;-81
2021/11/25 09:57:42;;;;;;;33.08;10.15;;;10.90;99.90;;;;;;4975527;28;20034;-76
2021/11/25 10:00:11;;;;;;;25.88;10.18;;;11.00;99.90;;;;;;5000680;28;20022;-81
2021/11/25 10:02:38;;;;;;;24.48;9.90;;;11.20;99.90;;;;;;4995568;28;20509;-77
2021/11/25 10:05:04;;;;;;;19.45;9.77;;;11.30;99.90;;;;;;4997199;28;20034;-83
2021/11/25 10:07:33;;;;;;;16.27;9.88;;;11.40;99.90;;;;;;4993157;28;20101;-82
2021/11/25 10:10:20;;;;;;;43.03;10.85;;;11.40;99.90;;;;;;4994883;28;20034;-83
2021/11/25 10:12:49;;;;;;;25.30;9.80;;;11.40;99.90;;;;;;5012500;28;20123;-78
2021/11/25 10:15:34;;;;;;;26.63;10.77;;;11.50;99.90;;;;;;5005411;28;20158;-82
2021/11/25 10:18:03;;;;;;;25.85;10.60;;;11.50;99.90;;;;;;4991373;28;20034;-81
2021/11/25 10:20:35;;;;;;;27.83;10.10;;;11.70;99.90;;;;;;4993154;28;20045;-80
2021/11/25 10:23:01;;;;;;;27.92;9.65;;;11.90;99.90;;;;;;4989510;28;20038;-81
2021/11/25 10:25:48;;;;;;;19.90;9.40;;;12.20;99.90;;;;;;4986704;28;20042;-81
2021/11/25 10:28:19;;;;;;;28.30;9.65;;;12.50;99.90;;;;;;4984705;28;20056;-81
2021/11/25 10:30:45;;;;;;;17.17;9.20;;;12.80;99.90;;;;;;4990166;28;20030;-78
2021/11/25 10:33:11;;;;;;;19.23;8.73;;;13.10;99.90;;;;;;4990503;28;20112;-80
2021/11/25 10:36:05;;;;;;;20.98;10.38;;;13.30;99.90;;;;;;4990809;28;20046;-81
2021/11/25 10:38:44;;;;;;;21.52;9.80;;;13.30;99.90;;;;;;4968498;28;20101;-80
2021/11/25 10:41:18;;;;;;;15.57;8.25;;;13.30;99.90;;;;;;4982477;28;20026;-77
2021/11/25 10:43:44;;;;;;;17.33;9.70;;;13.30;99.90;;;;;;4954859;28;20038;-84
2021/11/25 10:46:10;;;;;;;19.00;9.25;;;13.20;99.90;;;;;;4977412;28;20038;-80
2021/11/25 10:48:42;;;;;;;18.35;9.10;;;13.10;99.90;;;;;;4974839;28;20038;-81
2021/11/25 10:51:27;;;;;;;18.58;9.88;;;12.90;99.90;;;;;;4976610;28;20030;-81
2021/11/25 10:54:08;;;;;;;28.30;10.10;;;12.90;99.90;;;;;;4990135;28;20042;-78
2021/11/25 10:56:47;;;;;;;23.80;10.90;;;12.90;99.90;;;;;;4984411;28;20533;-77
2021/11/25 10:59:16;;;;;;;20.65;9.93;;;13.00;99.90;;;;;;4974589;28;20027;-77
2021/11/25 11:01:47;;;;;;;19.25;9.38;;;13.10;99.90;;;;;;4972091;28;20487;-80
2021/11/25 11:04:15;;;;;;;19.33;10.13;;;13.30;99.90;;;;;;4983690;28;20038;-78
2021/11/25 11:06:43;;;;;;;21.77;9.48;;;13.30;99.90;;;;;;4976102;28;20046;-83
2021/11/25 11:09:28;;;;;;;23.70;11.15;;;13.40;99.90;;;;;;4981125;28;20034;-82
2021/11/25 11:18:42;;;;;;;;;;;13.40;99.90;;;;;;4953910;28;20046;-77
2021/11/25 11:20:48;;;;;;;19.55;9.60;;;13.40;99.90;;;;;;4985682;28;19917;-81
2021/11/25 11:23:16;;;;;;;17.15;10.68;;;13.30;99.90;;;;;;4977855;28;20054;-82
2021/11/25 11:25:42;;;;;;;19.52;12.30;;;13.20;99.90;;;;;;4982094;28;20505;-79
2021/11/25 11:28:09;;;;;;;18.45;11.05;;;13.10;99.90;;;;;;4993256;28;20030;-80
2021/11/25 11:30:36;;;;;;;14.95;10.32;;;12.90;99.90;;;;;;5000189;28;20046;-80
2021/11/25 11:33:07;;;;;;;12.82;9.02;;;12.90;99.90;;;;;;4994453;28;20030;-80
2021/11/25 11:35:34;;;;;;;12.00;7.93;;;12.90;99.90;;;;;;4995188;28;20038;-80
2021/11/25 11:38:02;;;;;;;13.45;8.43;;;12.90;99.90;;;;;;4993876;28;20042;-80
2021/11/25 11:40:31;;;;;;;17.63;8.90;;;12.90;99.90;;;;;;4983349;28;20057;-80
2021/11/25 11:42:59;;;;;;;18.70;9.82;;;12.90;99.90;;;;;;4994473;28;20027;-80
2021/11/25 11:45:30;;;;;;;19.45;9.38;;;13.00;99.90;;;;;;4993805;28;20038;-78
2021/11/25 11:47:59;;;;;;;16.03;10.40;;;13.00;99.90;;;;;;4993890;28;20034;-81
2021/11/25 11:50:49;;;;;;;16.40;9.48;;;13.10;99.90;;;;;;4991199;28;20479;-80
2021/11/25 11:53:17;;;;;;;15.18;9.30;;;13.20;99.90;;;;;;4993706;28;20018;-81
2021/11/25 11:55:49;;;;;;;16.63;9.32;;;13.20;99.90;;;;;;4990844;28;20542;-82
2021/11/25 11:58:29;;;;;;;;;;;13.20;99.90;;;;;;4993964;28;20027;-79
2021/11/25 12:01:05;;;;;;;13.93;8.05;;;13.20;99.90;;;;;;4993503;28;19906;-80
2021/11/25 12:03:36;;;;;;;18.00;8.68;;;13.30;99.90;;;;;;4993991;28;20484;-81
2021/11/25 12:06:03;;;;;;;20.13;8.37;;;13.50;99.90;;;;;;4993696;28;20143;-81
2021/11/25 12:08:31;;;;;;;15.90;8.75;;;13.60;99.90;;;;;;4993756;28;20274;-81
2021/11/25 12:10:59;;;;;;;12.18;8.07;;;13.60;99.90;;;;;;4991594;28;20185;-81
2021/11/25 12:13:36;;;;;;;13.68;8.15;;;13.60;99.90;;;;;;4993257;28;20054;-81
2021/11/25 12:16:17;;;;;;;12.43;7.90;;;13.60;99.90;;;;;;4987526;28;20539;-80
2021/11/25 12:18:43;;;;;;;12.82;8.85;;;13.60;99.90;;;;;;4993720;28;20045;-77
2021/11/25 12:21:09;;;;;;;17.85;8.82;;;13.60;99.90;;;;;;4993394;28;20037;-82
2021/11/25 12:23:40;;;;;;;15.07;8.32;;;13.60;99.90;;;;;;4988104;28;20030;-80
2021/11/25 12:26:07;;;;;;;14.98;8.82;;;13.50;99.90;;;;;;4993328;28;20407;-78
2021/11/25 12:28:43;;;;;;;17.30;9.25;;;13.50;99.90;;;;;;4993325;28;20438;-80
2021/11/25 12:33:44;;;;;;;13.20;8.43;;;13.30;99.90;;;;;;4993994;28;20034;-81
2021/11/25 12:36:32;;;;;;;16.95;8.85;;;13.20;99.90;;;;;;4992929;28;20047;-82
2021/11/25 12:38:59;;;;;;;18.05;10.10;;;13.20;99.90;;;;;;4992859;28;20656;-76
2021/11/25 12:41:25;;;;;;;24.30;14.40;;;13.20;99.90;;;;;;4993338;28;20479;-78
2021/11/25 12:43:51;;;;;;;26.50;14.32;;;13.10;99.90;;;;;;4993356;28;20026;-79
2021/11/25 12:46:18;;;;;;;19.73;12.77;;;13.10;99.90;;;;;;4992724;28;20050;-79
2021/11/25 12:48:48;;;;;;;18.35;11.65;;;13.00;99.90;;;;;;4990360;28;20105;-81
2021/11/25 12:51:22;;;;;;;21.92;13.05;;;13.00;99.90;;;;;;4991850;28;20096;-81
2021/11/25 12:53:54;;;;;;;26.55;14.00;;;13.00;99.90;;;;;;4975366;28;20077;-80
2021/11/25 12:56:35;;;;;;;39.88;19.92;;;13.00;99.90;;;;;;4993478;28;20439;-82
2021/11/25 12:59:06;;;;;;;28.25;16.90;;;13.00;99.90;;;;;;4975273;28;20035;-80